航空気象通報

ウインドサーファーのための航空気象通報による風予報です。

11/30-12/2の航空気象通報

2014年11月30日 22時14分41秒 | TAF

羽田空港
TAF RJTT 301109Z 3012/0118 15008KT 8000 FEW010 BKN015
TEMPO 3017/3021 3000 RA BR FEW005 BKN008
TEMPO 3021/3024 4000 RA BR FEW005 BKN008
BECMG 0103/0106 21010KT
BECMG 0112/0115 25012KT
日本時間30日21時-1日12時:150度から8ノットの風
12-15時:風が変化
15-21時:210度から10ノットの風
21-24時:風が変化
2日00-03時:250度から12ノットの風

静岡空港
TAF RJNS 301105Z 3012/0118 34004KT 8000 -SHRA FEW008 BKN015
TEMPO 3012/3015 4000 -SHRA BR FEW005 BKN008
TEMPO 3015/3023 3000 SHRA BR FEW003 BKN005
BECMG 0100/0103 27018KT
TEMPO 0103/0112 27020G30KT
日本時間30日21時-1日09時:340度から4ノットの風
09-12時:風が変化
12時-2日03時:270度から18ノットの風
但し、1日12-21時の間:ときどき270度から20ノット、突風30ノット

福岡空港
TAF RJFF 301108Z 3012/0118 16011KT 8000 -SHRA FEW010 SCT020 BKN025
BECMG 3016/3018 29015G25KT
TEMPO 3017/3021 4000 -SHRA BR
日本時間30日21時-1日01時:160度から11ノットの風
01-03時:風が変化
03時-2日03時:290度から15ノット、突風25ノット

那覇空港
TAF ROAH 301106Z 3012/0118 21010KT 9999 FEW010 SCT035
BECMG 3015/3017 35022KT
TEMPO 3015/3017 3000 +TSRA SCT008 BKN015 SCT020CB
TEMPO 0100/0103 4000 RA
日本時間30日21-24時:210度から10ノットの風
1日00-02時:風が変化
02時-2日03時:350度から22ノットの風

但し、1日00-02時の間:ときどき
但し、1日09-12時の間:ときどき

石垣空港
TAF ROIG 301110Z 3012/0118 24005KT 9999 FEW010 BKN040
BECMG 3017/3019 36005KT
TEMPO 3017/3019 3000 +TSRA SCT008 BKN015 SCT020CB
BECMG 3019/3021 01018KT
TEMPO 3019/3021 4000 SHRA SCT008 BKN015 SCT020CB
TEMPO 3021/0115 02022G32KT
日本時間30日21時-1日02時:240度から5ノットの風
02-04時:風が変化
04時:360度から5ノットの風
04-06時:風が変化
06時-2日03時:010度から18ノットの風
但し、1日06-24時の間:ときどき020度から22ノット、突風32ノット

但し、1日02-04時の間:ときどき
但し、1日04-06時の間:ときどき

マウイのカフルイ空港
PHOG 301120Z 3012/0112 06012KT P6SM SCT050
FM302000 06015G25KT P6SM SCT030 BKN050
FM010300 06012KT P6SM SCT050 AMD LTD TO WX VIS AND WIND TIL 301600
ハワイ時間30日02-10時:060度から12ノットの風

10-17時:060度から15ノット、突風25ノット

17時-1日02時:060度から12ノットの風

サイパン空港
PGSN 301141Z 3012/0112 08011KT P6SM FEW025 SCT050
マリアナ時間30日22時-1日22時:080度から11ノットの風

コメント
この記事をはてなブックマークに追加

11/29-12/1の航空気象通報

2014年11月29日 20時32分16秒 | TAF
羽田空港
TAF RJTT 291105Z 2912/3018 34006KT 8000 FEW010
BECMG 3003/3006 12010KT
日本時間29日21時-30日12時:340度から6ノットの風
12-15時:風が変化
15時-1日03時:120度から10ノットの風


静岡空港
TAF RJNS 291105Z 2912/3018 32006KT 9999 FEW020
BECMG 3000/3003 08006KT
BECMG 3009/3012 32004KT
日本時間29日21時-30日09時:320度から6ノットの風
09-12時:風が変化
12-18時:080度から6ノットの風
18-21時:風が変化
21時-1日03時:320度から4ノットの風


福岡空港
TAF RJFF 291106Z 2912/3018 14005KT 9999 FEW030
TEMPO 3003/3009 3000 SHRA BR
BECMG 3015/3018 27013KT
日本時間29日21時-30日24時:140度から5ノットの風
1日00-03時:風が変化
03時:270度から13ノットの風

但し、30日12-18時の間:ときどき

那覇空港
TAF ROAH 291109Z 2912/3018 14005KT 9999 FEW010
BECMG 3003/3006 20015KT
BECMG 3015/3018 36015KT
TEMPO 3015/3018 4000 SHRA FEW010 BKN015 FEW025CB
日本時間29日21時-30日12時:140度から5ノットの風
12-15時:風が変化
15-24時:200度から15ノットの風
1日00-03時:風が変化
03時:360度から15ノットの風

但し、1日00-03時の間:ときどき

石垣空港
TAF ROIG 291115Z 2912/3018 16006KT 9999 FEW010
BECMG 3015/3018 35010KT
TEMPO 3015/3018 4000 SHRA
日本時間29日21時-30日24時:160度から6ノットの風
1日00-03時:風が変化
03時:350度から10ノットの風

但し、1日00-03時の間:ときどき

マウイのカフルイ空港
PHOG 291127Z 2912/3012 06012KT P6SM SCT030 BKN045
FM292000 06018G28KT P6SM SCT030 BKN050
FM300200 06012KT P6SM SCT050 AMD LTD TO WX VIS AND WIND TIL 291600
ハワイ時間29日02-10時:060度から12ノットの風
10-16時:060度から18ノット、突風28ノット

16時-30日02時:060度から12ノットの風


サイパン空港
PGSN 291120Z 2912/3012 06011KT P6SM FEW022
FM300000 07018KT P6SM VCSH SCT024 SCT040
マリアナ時間29日22時-30日10時:060度から11ノットの風
10-22時:070度から18ノットの風
コメント
この記事をはてなブックマークに追加

11/28-11/30の航空気象通報

2014年11月28日 21時44分46秒 | TAF
羽田空港
TAF RJTT 281105Z 2812/2918 20012KT 9999 FEW020 BKN050
BECMG 2822/2824 20022KT
TEMPO 2900/2906 20025G35KT 3000 SHRA BR FEW005 BKN008
BECMG 2906/2909 35016KT
日本時間28日21時-29日07時:200度から12ノットの風
07-09時:風が変化
09-15時:200度から22ノットの風
但し、09-15時の間:ときどき200度から25ノット、突風35ノット
15-18時:風が変化
18時-29日03時:350度から16ノットの風

但し、29日09-15時の間:ときどき

静岡空港
TAF RJNS 281106Z 2812/2918 28006KT 9999 FEW020 BKN040
TEMPO 2818/2824 3000 SHRA BR FEW005 BKN008
BECMG 2900/2903 27016KT
TEMPO 2900/2903 27018G28KT 2000 TSRA BR FEW003 BKN005 FEW015CB
TEMPO 2903/2909 27018G28KT
BECMG 2915/2918 34004KT
日本時間28日21時-29日09時:280度から6ノットの風
09-12時:風が変化
12-24時:270度から16ノットの風
但し、09-12時の間:ときどき270度から18ノット、突風28ノット
30日00-03時:風が変化
03時:340度から4ノットの風

但し、29日03-09時の間:ときどき
但し、29日09-12時の間:ときどき

福岡空港
TAF AMD RJFF 281239Z 2812/2918 20005KT 9999 FEW008 BKN020
BECMG 2812/2814 29012KT
TEMPO 2812/2814 3000 SHRA BR
BECMG 2909/2912 14005KT
日本時間28日21時:200度から5ノットの風
21-23時:風が変化
23時-29日18時:290度から12ノットの風
18-21時:風が変化
21時-30日03時:140度から5ノットの風

但し、28日21-23時の間:ときどき

那覇空港
TAF ROAH 281113Z 2812/2918 07013KT 9999 SCT015 BKN025
TEMPO 2812/2814 FEW003 BKN008 FEW020CB
BECMG 2814/2816 14006KT
TEMPO 2820/2824 4000 SHRA SCT008 BKN015 FEW020CB
TEMPO 2900/2906 3000 TSRA SCT007 BKN012 FEW015CB
日本時間28日21-23時:070度から13ノットの風
23時-29日01時:風が変化
01時-30日03時:140度から6ノットの風

但し、29日05-09時の間:ときどき
但し、29日09-15時の間:ときどき

石垣空港
TAF ROIG 281118Z 2812/2918 12005KT 9999 FEW015 SCT045
日本時間28日21時-30日03時:120度から5ノットの風


マウイのカフルイ空港
PHOG 281410Z 2814/2912 06012KT P6SM SCT030 BKN040
TEMPO 2814/2816 5SM -SHRA BR BKN025
FM281900 05018G28KT P6SM SCT040 BKN050
FM290800 06012G22KT P6SM SCT050 AMD LTD TO WX VIS AND WIND TIL 281600
ハワイ時間28日02-09時:060度から12ノットの風
09-22時:050度から18ノット、突風28ノット

但し、04-06時の間:ときどき
22時-29日02時:060度から12ノット、突風22ノット


サイパン空港
PGSN 281146Z 2812/2912 07011KT P6SM VCSH FEW022
FM290000 07014G24KT P6SM VCSH SCT024
マリアナ時間28日22時-29日10時:070度から11ノットの風
10-22時:070度から14ノット、突風24ノット
コメント
この記事をはてなブックマークに追加

11/26-11/28の航空気象通報

2014年11月26日 22時04分22秒 | TAF

羽田空港
TAF RJTT 261105Z 2612/2718 35018KT 9999 FEW010 BKN020
BECMG 2706/2709 08008KT
BECMG 2715/2718 02004KT
日本時間26日21時-27日15時:350度から18ノットの風
15-18時:風が変化
18-24時:080度から8ノットの風
28日00-03時:風が変化
03時:020度から4ノットの風

静岡空港
TAF RJNS 261105Z 2612/2718 33004KT 9999 FEW010 BKN030
BECMG 2700/2703 18008KT
BECMG 2709/2712 30006KT
日本時間26日21時-27日09時:330度から4ノットの風
09-12時:風が変化
12-18時:180度から8ノットの風
18-21時:風が変化
21時-28日03時:300度から6ノットの風

福岡空港
TAF RJFF 261109Z 2612/2718 02005KT 9999 FEW035 SCT045
BECMG 2616/2618 14004KT
BECMG 2700/2703 02006KT
BECMG 2709/2712 14005KT
日本時間26日21時-27日01時:020度から5ノットの風
01-03時:風が変化
03-09時:140度から4ノットの風
09-12時:風が変化
12-18時:020度から6ノットの風
18-21時:風が変化
21時-28日03時:140度から5ノットの風

那覇空港
TAF ROAH 261109Z 2612/2718 02010KT 9999 FEW020 BKN025
BECMG 2703/2706 10008KT
TEMPO 2715/2718 3000 +SHRA FEW010 BKN020 FEW025CB
日本時間26日21時-27日12時:020度から10ノットの風
12-15時:風が変化
15時-28日03時:100度から8ノットの風

但し、28日00-03時の間:ときどき

石垣空港
TAF ROIG 261115Z 2612/2718 06020KT 9999 FEW020 BKN040
TEMPO 2703/2709 10020G30KT 3000 +SHRA FEW010 BKN020 FEW025CB
BECMG 2709/2712 15014KT
日本時間26日21時-27日18時:060度から20ノットの風
但し、27日12-18時の間:ときどき100度から20ノット、突風30ノット
18-21時:風が変化
21時-28日03時:150度から14ノットの風

但し、27日12-18時の間:ときどき

マウイのカフルイ空港
PHOG 261120Z 2612/2712 05008KT P6SM FEW030 BKN045
FM262000 05014G22KT P6SM FEW035 SCT050
FM270500 05011G17KT P6SM FEW030 SCT045 AMD LTD TO WX VIS AND WIND TIL 261600
ハワイ時間26日02-10時:050度から8ノットの風

10-19時:050度から14ノット、突風22ノット
19時-27日02時:050度から11ノット、突風17ノット

サイパン空港
PGSN 261120Z 2612/2712 07010KT P6SM SCT020
FM270000 07015KT P6SM SCT022
マリアナ時間26日22時-27日10時:070度から10ノットの風
10-22時:070度から15ノットの風

コメント
この記事をはてなブックマークに追加

11/25-11/27の航空気象通報

2014年11月25日 22時46分54秒 | TAF

羽田空港
TAF AMD RJTT 251232Z 2512/2618 35016KT 6000 -RA FEW008 BKN012
TEMPO 2512/2515 4000 -RA BR FEW005 BKN008
TEMPO 2515/2521 3000 RA BR FEW005 BKN008
日本時間25日21時-27日03時:350度から16ノットの風

静岡空港
TAF RJNS 251105Z 2512/2618 04010KT 8000 FEW006 BKN012
TEMPO 2512/2514 4000 RA BR FEW005 BKN008
BECMG 2600/2603 24008KT
日本時間25日21時-26日09時:040度から10ノットの風
09-12時:風が変化
12時-27日03時:240度から8ノットの風

但し、25日21-23時の間:ときどき

福岡空港
TAF RJFF 251110Z 2512/2618 03005KT 9999 FEW020 SCT040
BECMG 2516/2518 15003KT
BECMG 2600/2603 35011KT
BECMG 2615/2618 15005KT
日本時間25日21時-26日01時:030度から5ノットの風
01-03時:風が変化
03-09時:150度から3ノットの風
09-12時:風が変化
12-24時:350度から11ノットの風
27日00-03時:風が変化
03時:150度から5ノットの風

那覇空港
TAF ROAH 251108Z 2512/2618 35004KT 9999 FEW020
日本時間25日21時-27日03時:350度から4ノットの風

石垣空港
TAF ROIG 251112Z 2512/2618 04006KT 9999 FEW010 SCT045
BECMG 2600/2603 06018KT
日本時間25日21時-26日09時:040度から6ノットの風
09-12時:風が変化
12時-27日03時:060度から18ノットの風

マウイのカフルイ空港
PHOG 251139Z 2512/2612 05010KT P6SM VCSH BKN035
FM252000 04012G20KT P6SM FEW030 SCT050
FM260400 04010KT P6SM FEW030 SCT050 AMD LTD TO WX VIS AND WIND TIL 251600
ハワイ時間25日02-10時:050度から10ノットの風

10-18時:040度から12ノット、突風20ノット
18時-26日02時:040度から10ノットの風

サイパン空港
PGSN 251123Z 2512/2612 09011KT P6SM FEW022 SCT040
マリアナ時間25日22時-26日22時:090度から11ノットの風

コメント
この記事をはてなブックマークに追加